createdAt,value
2023-04-28T00:01:58.165Z,14.98
2023-04-28T00:04:25.058Z,15.00
2023-04-28T00:06:52.330Z,15.04
2023-04-28T00:09:18.710Z,15.05
2023-04-28T00:11:45.142Z,15.08
2023-04-28T00:14:12.110Z,15.13
2023-04-28T00:16:38.755Z,15.16
2023-04-28T00:19:05.273Z,15.16
2023-04-28T00:21:33.863Z,15.15
2023-04-28T00:24:00.278Z,15.16
2023-04-28T00:26:26.663Z,15.17
2023-04-28T00:28:53.622Z,15.18
2023-04-28T00:31:20.214Z,15.20
2023-04-28T00:33:46.630Z,15.22
2023-04-28T00:36:13.041Z,15.21
2023-04-28T00:38:39.978Z,15.20
2023-04-28T00:41:06.597Z,15.22
2023-04-28T00:43:33.056Z,15.23
2023-04-28T00:45:59.554Z,15.24
2023-04-28T00:48:26.005Z,15.25
2023-04-28T00:50:52.438Z,15.27
2023-04-28T00:53:18.850Z,15.29
2023-04-28T00:55:45.278Z,15.28
2023-04-28T00:58:11.687Z,15.27
2023-04-28T01:00:38.346Z,15.27
2023-04-28T01:03:05.090Z,15.26
2023-04-28T01:05:31.804Z,15.26
2023-04-28T01:07:58.412Z,15.27
2023-04-28T01:10:24.850Z,15.26
2023-04-28T01:12:52.297Z,15.26
2023-04-28T01:15:18.739Z,15.26
2023-04-28T01:17:45.494Z,15.26
2023-04-28T01:20:13.063Z,15.26
2023-04-28T01:22:39.522Z,15.27
2023-04-28T01:25:05.927Z,15.26
2023-04-28T01:27:32.350Z,15.24
2023-04-28T01:29:58.777Z,15.24
2023-04-28T01:32:25.330Z,15.25
2023-04-28T01:34:52.576Z,15.25
2023-04-28T01:37:18.995Z,15.26
2023-04-28T01:39:45.420Z,15.24
2023-04-28T01:42:12.411Z,15.25
2023-04-28T01:44:39.986Z,15.26
2023-04-28T01:47:06.562Z,15.26
2023-04-28T01:49:33.167Z,15.29
2023-04-28T01:51:59.543Z,15.29
2023-04-28T01:54:27.390Z,15.28
2023-04-28T01:56:54.036Z,15.27
2023-04-28T01:59:22.607Z,15.29
2023-04-28T02:01:50.239Z,15.35
2023-04-28T02:04:18.011Z,15.37
2023-04-28T02:06:45.377Z,15.36
2023-04-28T02:09:11.777Z,15.37
2023-04-28T02:11:38.226Z,15.31
2023-04-28T02:14:04.600Z,15.37
2023-04-28T02:16:31.124Z,15.36
2023-04-28T02:18:58.324Z,15.38
2023-04-28T02:21:27.970Z,15.41
2023-04-28T02:23:54.436Z,15.41
2023-04-28T02:26:20.846Z,15.41
2023-04-28T02:28:47.677Z,15.45
2023-04-28T02:31:14.164Z,15.48
2023-04-28T02:33:40.643Z,15.47
2023-04-28T02:36:07.088Z,15.46
2023-04-28T02:38:33.522Z,15.45
2023-04-28T02:41:00.011Z,15.46
2023-04-28T02:43:27.298Z,15.44
2023-04-28T02:45:53.881Z,15.43
2023-04-28T02:48:22.507Z,15.44
2023-04-28T02:50:49.013Z,15.43
2023-04-28T02:53:15.690Z,15.44
2023-04-28T02:55:42.365Z,15.46
2023-04-28T02:58:08.769Z,15.49
2023-04-28T03:00:37.911Z,15.53
2023-04-28T03:03:05.350Z,15.54
2023-04-28T03:05:31.952Z,15.55
2023-04-28T03:07:59.220Z,15.58
2023-04-28T03:10:25.799Z,15.60
2023-04-28T03:12:52.418Z,15.66
2023-04-28T03:15:18.865Z,15.66
2023-04-28T03:17:45.313Z,15.65
2023-04-28T03:20:11.779Z,15.65
2023-04-28T03:22:38.195Z,15.64
2023-04-28T03:25:04.658Z,15.63
2023-04-28T03:27:31.977Z,15.65
2023-04-28T03:29:58.419Z,15.59
2023-04-28T03:32:24.940Z,15.63
2023-04-28T03:34:51.373Z,15.57
2023-04-28T03:37:18.352Z,15.53
2023-04-28T03:39:44.752Z,15.44
2023-04-28T03:42:11.201Z,15.42
2023-04-28T03:44:38.092Z,15.37
2023-04-28T03:47:05.675Z,15.32
2023-04-28T03:49:34.270Z,15.28
2023-04-28T03:52:00.683Z,15.30
2023-04-28T03:54:27.156Z,15.31
2023-04-28T03:56:54.054Z,15.31
2023-04-28T03:59:20.506Z,15.27
2023-04-28T04:01:47.233Z,15.24
2023-04-28T04:04:14.121Z,15.25
2023-04-28T04:06:41.428Z,15.26
2023-04-28T04:09:08.013Z,15.24
2023-04-28T04:11:34.583Z,15.17
2023-04-28T04:14:01.188Z,15.13
2023-04-28T04:16:27.836Z,15.06
2023-04-28T04:18:55.372Z,15.02
2023-04-28T04:21:21.794Z,15.01
2023-04-28T04:23:48.190Z,15.00
2023-04-28T04:26:14.629Z,15.00
2023-04-28T04:28:42.749Z,14.98
2023-04-28T04:31:09.374Z,14.97
2023-04-28T04:33:35.823Z,14.97
2023-04-28T04:36:02.524Z,14.98
2023-04-28T04:38:29.107Z,14.99
2023-04-28T04:40:57.725Z,15.00
2023-04-28T04:43:25.324Z,15.04
2023-04-28T04:45:52.925Z,15.05
2023-04-28T04:48:20.492Z,15.08
2023-04-28T04:50:46.910Z,15.03
2023-04-28T04:53:16.081Z,15.07
2023-04-28T04:55:42.979Z,15.10
2023-04-28T04:58:09.944Z,15.09
2023-04-28T05:00:36.536Z,15.14
2023-04-28T05:03:03.060Z,15.15
2023-04-28T05:05:31.726Z,15.16
2023-04-28T05:07:59.306Z,15.20
2023-04-28T05:10:25.722Z,15.32
2023-04-28T05:12:52.183Z,15.29
2023-04-28T05:15:18.597Z,15.34
2023-04-28T05:17:45.685Z,15.39
2023-04-28T05:20:14.277Z,15.44
2023-04-28T05:22:41.846Z,15.47
2023-04-28T05:25:08.447Z,15.50
2023-04-28T05:27:34.865Z,15.54
2023-04-28T05:30:01.354Z,15.60
2023-04-28T05:32:28.240Z,15.63
2023-04-28T05:34:55.789Z,15.64
2023-04-28T05:37:22.370Z,15.70
2023-04-28T05:39:48.779Z,15.70
2023-04-28T05:42:15.558Z,15.74
2023-04-28T05:44:43.159Z,15.77
2023-04-28T05:47:11.842Z,15.77
2023-04-28T05:49:39.473Z,15.83
2023-04-28T05:52:06.031Z,15.90
2023-04-28T05:54:32.624Z,15.92
2023-04-28T05:57:01.326Z,15.99
2023-04-28T05:59:28.853Z,16.05
2023-04-28T06:01:55.259Z,16.13
2023-04-28T06:04:22.515Z,16.24
2023-04-28T06:06:49.448Z,16.32
2023-04-28T06:09:16.435Z,16.37
2023-04-28T06:11:43.831Z,16.40
2023-04-28T06:14:10.286Z,16.43
2023-04-28T06:16:37.022Z,16.42
2023-04-28T06:19:03.520Z,16.48
2023-04-28T06:21:30.228Z,16.49
2023-04-28T06:24:00.636Z,16.53
2023-04-28T06:26:27.418Z,16.61
2023-04-28T06:28:54.004Z,16.69
2023-04-28T06:31:21.601Z,16.69
2023-04-28T06:33:48.473Z,16.71
2023-04-28T06:36:15.764Z,16.70
2023-04-28T06:38:42.344Z,16.63
2023-04-28T06:41:08.805Z,16.54
2023-04-28T06:43:35.319Z,16.43
2023-04-28T06:46:01.832Z,16.34
2023-04-28T06:48:28.257Z,16.30
2023-04-28T06:50:55.302Z,16.26
2023-04-28T06:53:21.930Z,16.28
2023-04-28T06:55:49.529Z,16.30
2023-04-28T06:58:17.148Z,16.36
2023-04-28T07:00:43.772Z,16.40
2023-04-28T07:03:10.713Z,16.46
2023-04-28T07:05:37.243Z,16.55
2023-04-28T07:08:03.726Z,16.67
2023-04-28T07:10:30.208Z,16.77
2023-04-28T07:12:57.747Z,16.87
2023-04-28T07:15:24.311Z,16.93
2023-04-28T07:17:52.936Z,17.04
2023-04-28T07:20:20.497Z,17.17
2023-04-28T07:22:49.287Z,17.28
2023-04-28T07:25:17.782Z,17.33
2023-04-28T07:27:45.309Z,17.40
2023-04-28T07:30:26.729Z,17.50
2023-04-28T07:32:55.654Z,17.56
2023-04-28T07:35:23.175Z,17.53
2023-04-28T07:37:51.733Z,17.56
2023-04-28T07:40:20.857Z,17.65
2023-04-28T07:42:47.954Z,17.66
2023-04-28T07:45:15.532Z,17.73
2023-04-28T07:47:42.148Z,17.81
2023-04-28T07:50:09.040Z,17.96
2023-04-28T07:52:37.751Z,18.06
2023-04-28T07:55:04.909Z,18.13
2023-04-28T07:57:32.505Z,18.18
2023-04-28T08:00:00.104Z,18.24
2023-04-28T08:02:29.131Z,18.28
2023-04-28T08:04:58.590Z,18.36
2023-04-28T08:07:26.896Z,18.40
2023-04-28T08:09:54.491Z,18.53
2023-04-28T08:12:22.065Z,18.64
2023-04-28T08:14:49.656Z,18.69
2023-04-28T08:17:18.240Z,18.71
2023-04-28T08:19:45.847Z,18.73
2023-04-28T08:22:13.427Z,18.76
2023-04-28T08:24:40.012Z,18.80
2023-04-28T08:27:07.609Z,18.80
2023-04-28T08:29:34.135Z,18.87
2023-04-28T08:32:01.831Z,18.96
2023-04-28T08:34:29.407Z,19.04
2023-04-28T08:36:57.002Z,19.08
2023-04-28T08:39:24.622Z,19.18
2023-04-28T08:41:52.219Z,19.30
2023-04-28T08:44:19.771Z,19.40
2023-04-28T08:46:48.781Z,19.59
2023-04-28T08:49:15.978Z,19.76
2023-04-28T08:51:43.551Z,19.88
2023-04-28T08:54:25.533Z,20.01
2023-04-28T08:56:53.774Z,20.09
2023-04-28T08:59:21.405Z,20.21
2023-04-28T09:01:47.964Z,20.26
2023-04-28T09:04:14.939Z,20.37
2023-04-28T09:06:43.213Z,20.40
2023-04-28T09:09:10.749Z,20.48
2023-04-28T09:11:38.338Z,20.58
2023-04-28T09:14:04.825Z,20.59
2023-04-28T09:16:31.576Z,20.57
2023-04-28T09:18:59.144Z,20.65
2023-04-28T09:21:26.691Z,20.67
2023-04-28T09:23:54.294Z,20.72
2023-04-28T09:26:20.909Z,20.64
2023-04-28T09:28:48.479Z,20.64
2023-04-28T09:31:16.143Z,20.61
2023-04-28T09:33:43.667Z,20.65
2023-04-28T09:36:10.616Z,20.71
2023-04-28T09:38:37.874Z,20.82
2023-04-28T09:41:04.439Z,20.98
2023-04-28T09:43:32.059Z,21.05
2023-04-28T09:46:00.810Z,21.30
2023-04-28T09:48:27.483Z,21.50
2023-04-28T09:50:54.865Z,21.73
2023-04-28T09:53:22.460Z,21.91
2023-04-28T09:55:50.049Z,22.36
2023-04-28T09:58:16.650Z,22.36
2023-04-28T10:00:44.256Z,22.30
2023-04-28T10:03:12.945Z,22.23
2023-04-28T10:05:40.589Z,22.10
2023-04-28T10:08:09.812Z,22.01
2023-04-28T10:10:36.701Z,22.04
2023-04-28T10:13:03.561Z,21.95
2023-04-28T10:15:32.020Z,21.95
2023-04-28T10:17:59.554Z,22.01
2023-04-28T10:20:27.136Z,22.08
2023-04-28T10:22:53.625Z,22.17
2023-04-28T10:25:20.097Z,22.01
2023-04-28T10:27:46.538Z,21.97
2023-04-28T10:30:22.825Z,21.98
2023-04-28T10:32:53.645Z,22.06
2023-04-28T10:35:20.033Z,22.16
2023-04-28T10:37:46.425Z,22.39
2023-04-28T10:40:12.928Z,22.43
2023-04-28T10:42:39.369Z,22.48
2023-04-28T10:45:05.830Z,22.55
2023-04-28T10:47:32.268Z,22.50
2023-04-28T10:49:58.762Z,22.52
2023-04-28T10:52:25.277Z,22.79
2023-04-28T10:54:51.734Z,23.06
2023-04-28T10:57:18.165Z,23.42
2023-04-28T10:59:44.574Z,23.64
2023-04-28T11:02:11.234Z,23.59
2023-04-28T11:04:38.065Z,23.47
2023-04-28T11:07:04.653Z,23.23
2023-04-28T11:09:34.065Z,22.92
2023-04-28T11:12:00.470Z,22.54
2023-04-28T11:14:26.903Z,22.31
2023-04-28T11:16:53.324Z,22.19
2023-04-28T11:19:19.995Z,22.22
2023-04-28T11:21:46.648Z,22.46
2023-04-28T11:24:13.088Z,22.54
2023-04-28T11:26:39.502Z,22.58
2023-04-28T11:29:05.931Z,22.82
2023-04-28T11:31:32.401Z,23.13
2023-04-28T11:33:58.800Z,23.45
2023-04-28T11:36:25.220Z,23.72
2023-04-28T11:38:51.661Z,23.85
2023-04-28T11:41:18.103Z,24.10
2023-04-28T11:43:47.665Z,24.17
2023-04-28T11:46:14.881Z,24.14
2023-04-28T11:48:41.601Z,24.17
2023-04-28T11:51:09.049Z,24.29
2023-04-28T11:53:35.646Z,24.48
2023-04-28T11:56:03.297Z,24.60
2023-04-28T11:58:30.894Z,24.55
2023-04-28T12:00:57.478Z,24.58
2023-04-28T12:03:26.506Z,24.40
2023-04-28T12:05:53.721Z,24.17
2023-04-28T12:08:22.259Z,23.98
2023-04-28T12:10:49.840Z,23.78
2023-04-28T12:13:16.422Z,23.64
2023-04-28T12:15:43.299Z,23.40
2023-04-28T12:18:10.744Z,23.13
2023-04-28T12:20:39.660Z,22.94
2023-04-28T12:23:06.817Z,22.83
2023-04-28T12:25:34.413Z,22.88
2023-04-28T12:28:02.016Z,22.80
2023-04-28T12:30:29.600Z,22.78
2023-04-28T12:32:56.210Z,22.84
2023-04-28T12:35:23.836Z,22.94
2023-04-28T12:37:51.516Z,23.25
2023-04-28T12:40:18.967Z,23.49
2023-04-28T12:42:46.561Z,23.71
2023-04-28T12:45:15.170Z,23.76
2023-04-28T12:47:42.785Z,23.87
2023-04-28T12:50:10.358Z,23.98
2023-04-28T12:52:39.496Z,24.15
2023-04-28T12:55:06.517Z,24.07
2023-04-28T12:57:34.125Z,24.09
2023-04-28T13:00:01.743Z,24.11
2023-04-28T13:02:29.398Z,23.97
2023-04-28T13:04:56.946Z,23.92
2023-04-28T13:07:24.474Z,23.96
2023-04-28T13:09:53.548Z,23.98
2023-04-28T13:12:21.668Z,23.98
2023-04-28T13:14:50.664Z,23.87
2023-04-28T13:17:18.838Z,23.71
2023-04-28T13:19:47.756Z,23.53
2023-04-28T13:22:16.164Z,23.52
2023-04-28T13:24:43.803Z,23.55
2023-04-28T13:27:11.240Z,23.46
2023-04-28T13:29:38.838Z,23.38
2023-04-28T13:32:05.609Z,23.23
2023-04-28T13:34:34.039Z,23.08
2023-04-28T13:37:02.621Z,23.00
2023-04-28T13:39:30.201Z,22.86
2023-04-28T13:41:57.997Z,22.77
2023-04-28T13:44:26.411Z,22.69
2023-04-28T13:46:53.966Z,22.71
2023-04-28T13:49:21.557Z,22.93
2023-04-28T13:51:50.299Z,22.89
2023-04-28T13:54:19.467Z,22.94
2023-04-28T13:56:46.360Z,23.00
2023-04-28T13:59:13.956Z,23.03
2023-04-28T14:01:41.582Z,23.09
2023-04-28T14:04:09.462Z,23.12
2023-04-28T14:06:36.727Z,23.11
2023-04-28T14:09:03.325Z,23.05
2023-04-28T14:11:31.920Z,23.03
2023-04-28T14:13:59.542Z,23.02
2023-04-28T14:16:27.123Z,23.05
2023-04-28T14:18:54.690Z,23.10
2023-04-28T14:21:22.300Z,23.20
2023-04-28T14:23:49.880Z,23.31
2023-04-28T14:26:17.478Z,23.40
2023-04-28T14:28:45.044Z,23.42
2023-04-28T14:31:13.736Z,23.41
2023-04-28T14:33:40.687Z,23.38
2023-04-28T14:36:08.869Z,23.41
2023-04-28T14:38:38.357Z,23.43
2023-04-28T14:41:07.082Z,23.56
2023-04-28T14:43:36.511Z,23.63
2023-04-28T14:46:03.317Z,23.64
2023-04-28T14:48:31.872Z,23.59
2023-04-28T14:50:58.902Z,23.58
2023-04-28T14:53:26.028Z,23.57
2023-04-28T14:56:01.976Z,23.50
2023-04-28T14:58:39.313Z,23.54
2023-04-28T15:01:06.861Z,23.50
2023-04-28T15:03:34.668Z,23.51
2023-04-28T15:06:03.482Z,23.51
2023-04-28T15:08:31.665Z,23.44
2023-04-28T15:10:59.247Z,23.35
2023-04-28T15:13:26.832Z,23.33
2023-04-28T15:15:54.465Z,23.34
2023-04-28T15:18:22.014Z,23.33
2023-04-28T15:20:49.596Z,23.30
2023-04-28T15:23:18.196Z,23.29
2023-04-28T15:25:45.318Z,23.26
2023-04-28T15:28:12.377Z,23.48
2023-04-28T15:30:40.959Z,23.48
2023-04-28T15:33:09.572Z,23.47
2023-04-28T15:35:37.138Z,23.44
2023-04-28T15:38:04.729Z,23.37
2023-04-28T15:40:32.314Z,23.39
2023-04-28T15:42:58.956Z,23.46
2023-04-28T15:45:26.555Z,23.76
2023-04-28T15:47:55.234Z,23.65
2023-04-28T15:50:22.762Z,23.66
2023-04-28T15:52:50.411Z,23.66
2023-04-28T15:55:17.927Z,23.75
2023-04-28T15:57:45.508Z,23.71
2023-04-28T16:00:14.474Z,23.63
2023-04-28T16:02:42.796Z,23.56
2023-04-28T16:05:10.279Z,23.63
2023-04-28T16:07:37.909Z,23.55
2023-04-28T16:10:07.016Z,23.58
2023-04-28T16:12:35.070Z,23.65
2023-04-28T16:15:02.629Z,23.66
2023-04-28T16:17:29.259Z,23.64
2023-04-28T16:19:58.507Z,23.56
2023-04-28T16:22:26.565Z,23.59
2023-04-28T16:24:54.016Z,23.51
2023-04-28T16:27:21.608Z,23.45
2023-04-28T16:29:50.198Z,23.39
2023-04-28T16:32:16.884Z,23.34
2023-04-28T16:34:44.369Z,23.22
2023-04-28T16:37:16.194Z,23.12
2023-04-28T16:39:43.695Z,23.04
2023-04-28T16:42:11.236Z,22.98
2023-04-28T16:44:38.813Z,22.84
2023-04-28T16:47:07.423Z,22.76
2023-04-28T16:49:36.342Z,22.69
2023-04-28T16:52:04.615Z,22.59
2023-04-28T16:54:31.233Z,22.52
2023-04-28T16:56:58.818Z,22.47
2023-04-28T16:59:26.413Z,22.38
2023-04-28T17:01:54.016Z,22.31
2023-04-28T17:04:21.819Z,22.26
2023-04-28T17:06:50.172Z,22.19
2023-04-28T17:09:18.777Z,22.13
2023-04-28T17:11:46.372Z,22.00
2023-04-28T17:14:12.787Z,21.91
2023-04-28T17:16:39.562Z,21.85
2023-04-28T17:19:06.162Z,21.84
2023-04-28T17:21:32.728Z,21.83
2023-04-28T17:23:59.190Z,21.80
2023-04-28T17:26:25.939Z,21.74
2023-04-28T17:28:54.638Z,21.64
2023-04-28T17:31:21.172Z,21.52
2023-04-28T17:33:48.709Z,21.55
2023-04-28T17:36:17.313Z,21.44
2023-04-28T17:38:43.920Z,21.43
2023-04-28T17:41:10.358Z,21.41
2023-04-28T17:43:36.833Z,21.36
2023-04-28T17:46:03.358Z,21.31
2023-04-28T17:48:29.830Z,21.39
2023-04-28T17:50:56.299Z,21.31
2023-04-28T17:53:23.447Z,21.19
2023-04-28T17:55:50.112Z,21.16
2023-04-28T17:58:17.636Z,21.09
2023-04-28T18:00:44.142Z,21.03
2023-04-28T18:03:10.884Z,20.94
2023-04-28T18:05:38.429Z,20.78
2023-04-28T18:08:07.032Z,20.86
2023-04-28T18:10:33.487Z,20.84
2023-04-28T18:12:59.939Z,20.16
2023-04-28T18:15:26.411Z,19.88
2023-04-28T18:17:54.411Z,19.49
2023-04-28T18:20:22.990Z,18.84
2023-04-28T18:22:50.592Z,18.62
2023-04-28T18:25:19.527Z,18.31
2023-04-28T18:27:46.794Z,18.08
2023-04-28T18:30:13.384Z,17.98
2023-04-28T18:32:40.005Z,17.91
2023-04-28T18:35:07.566Z,17.88
2023-04-28T18:37:35.145Z,17.84
2023-04-28T18:40:01.995Z,17.86
2023-04-28T18:42:29.321Z,17.87
2023-04-28T18:44:57.917Z,18.31
2023-04-28T18:47:24.413Z,18.16
2023-04-28T18:49:52.154Z,18.14
2023-04-28T18:52:19.161Z,18.02
2023-04-28T18:54:46.320Z,17.87
2023-04-28T18:57:12.733Z,17.84
2023-04-28T18:59:39.233Z,17.77
2023-04-28T19:02:05.636Z,17.69
2023-04-28T19:04:32.823Z,17.63
2023-04-28T19:07:00.282Z,17.66
2023-04-28T19:09:26.682Z,17.63
2023-04-28T19:11:53.055Z,17.72
2023-04-28T19:14:19.503Z,17.75
2023-04-28T19:16:46.769Z,17.69
2023-04-28T19:19:14.305Z,17.71
2023-04-28T19:21:40.750Z,17.77
2023-04-28T19:24:07.147Z,17.68
2023-04-28T19:26:34.096Z,17.61
2023-04-28T19:29:01.673Z,17.60
2023-04-28T19:31:28.398Z,17.70
2023-04-28T19:33:54.873Z,17.80
2023-04-28T19:36:21.279Z,17.89
2023-04-28T19:38:47.864Z,18.02
2023-04-28T19:41:14.325Z,18.19
2023-04-28T19:43:40.736Z,18.55
2023-04-28T19:46:07.236Z,18.73
2023-04-28T19:48:33.723Z,18.47
2023-04-28T19:51:00.212Z,18.17
2023-04-28T19:53:26.653Z,18.08
2023-04-28T19:55:53.102Z,18.08
2023-04-28T19:58:19.512Z,17.84
2023-04-28T20:00:45.936Z,17.59
2023-04-28T20:03:12.434Z,17.42
2023-04-28T20:05:38.998Z,17.28
2023-04-28T20:08:06.226Z,17.15
2023-04-28T20:10:34.814Z,17.20
2023-04-28T20:13:01.247Z,17.08
2023-04-28T20:15:28.020Z,17.07
2023-04-28T20:17:54.533Z,17.04
2023-04-28T20:20:21.263Z,16.96
2023-04-28T20:22:47.854Z,16.93
2023-04-28T20:25:16.461Z,16.36
2023-04-28T20:27:42.920Z,16.01
2023-04-28T20:30:09.388Z,15.90
2023-04-28T20:32:36.227Z,15.84
2023-04-28T20:35:03.799Z,16.24
2023-04-28T20:37:30.384Z,16.07
2023-04-28T20:39:56.850Z,15.78
2023-04-28T20:42:23.262Z,15.72
2023-04-28T20:44:49.703Z,15.77
2023-04-28T20:47:16.734Z,15.85
2023-04-28T20:49:45.346Z,15.92
2023-04-28T20:52:11.811Z,16.01
2023-04-28T20:54:39.549Z,16.10
2023-04-28T20:57:06.159Z,16.18
2023-04-28T20:59:33.764Z,16.25
2023-04-28T21:02:02.391Z,16.31
2023-04-28T21:04:29.941Z,16.36
2023-04-28T21:06:57.525Z,16.48
2023-04-28T21:09:24.104Z,16.54
2023-04-28T21:11:51.725Z,16.46
2023-04-28T21:14:19.333Z,16.50
2023-04-28T21:16:47.957Z,16.48
2023-04-28T21:19:16.556Z,16.52
2023-04-28T21:21:44.157Z,16.54
2023-04-28T21:24:11.703Z,16.61
2023-04-28T21:26:40.347Z,16.65
2023-04-28T21:29:07.949Z,16.69
2023-04-28T21:31:34.723Z,16.70
2023-04-28T21:34:02.265Z,16.68
2023-04-28T21:36:29.768Z,16.55
2023-04-28T21:38:58.424Z,16.47
2023-04-28T21:41:26.048Z,16.33
2023-04-28T21:43:54.654Z,16.23
2023-04-28T21:46:22.340Z,16.13
2023-04-28T21:48:49.870Z,16.08
2023-04-28T21:51:17.448Z,16.02
2023-04-28T21:53:44.042Z,15.99
2023-04-28T21:56:11.645Z,15.97
2023-04-28T21:58:38.316Z,16.07
2023-04-28T22:01:05.928Z,15.94
2023-04-28T22:03:33.467Z,15.92
2023-04-28T22:06:01.019Z,15.90
2023-04-28T22:08:28.567Z,15.89
2023-04-28T22:10:56.174Z,15.88
2023-04-28T22:13:22.816Z,15.87
2023-04-28T22:15:49.737Z,15.90
2023-04-28T22:18:16.171Z,15.87
2023-04-28T22:20:42.587Z,15.89
2023-04-28T22:23:09.022Z,15.93
2023-04-28T22:25:35.805Z,15.87
2023-04-28T22:28:04.420Z,15.80
2023-04-28T22:30:30.890Z,15.82
2023-04-28T22:32:57.409Z,15.82
2023-04-28T22:35:23.849Z,15.86
2023-04-28T22:37:50.278Z,15.91
2023-04-28T22:40:16.918Z,16.00
2023-04-28T22:42:43.935Z,16.12
2023-04-28T22:45:10.856Z,16.16
2023-04-28T22:47:38.192Z,16.14
2023-04-28T22:50:04.827Z,16.13
2023-04-28T22:52:31.282Z,16.14
2023-04-28T22:54:57.950Z,16.14
2023-04-28T22:57:26.664Z,16.09
2023-04-28T22:59:54.172Z,16.07
2023-04-28T23:02:21.869Z,16.07
2023-04-28T23:04:49.324Z,16.04
2023-04-28T23:07:16.029Z,16.03
2023-04-28T23:09:42.423Z,16.01
2023-04-28T23:12:08.854Z,15.99
2023-04-28T23:14:35.294Z,15.97
2023-04-28T23:17:02.324Z,15.96
2023-04-28T23:19:29.913Z,15.93
2023-04-28T23:21:57.496Z,15.92
2023-04-28T23:24:24.113Z,15.91
2023-04-28T23:26:51.804Z,15.90
2023-04-28T23:29:19.296Z,15.88
2023-04-28T23:31:46.933Z,15.89
2023-04-28T23:34:13.504Z,15.88
2023-04-28T23:36:41.128Z,15.89
2023-04-28T23:39:08.695Z,15.86
2023-04-28T23:41:36.297Z,15.89
2023-04-28T23:44:03.144Z,15.93
2023-04-28T23:46:29.582Z,15.88
2023-04-28T23:48:57.187Z,15.85
2023-04-28T23:51:24.680Z,15.82
2023-04-28T23:53:51.250Z,15.83
2023-04-28T23:56:17.666Z,15.83
2023-04-28T23:58:44.100Z,15.84
